Woodsville, New Hampshire
Current Conditions -  °F | °C
As of 6:51 PM on Friday 28 Nov 2014 (Local Time) from KMPV Reporting Station
Few Clouds Few Clouds  
Wind Chill: 14°   Ceiling: Unl
Heat Index: 14°   Visibility: 10mi
Dew Point: 12°   Wind: 0mph
Humidity: 92%   Direction: NA
Pressure: 30.14"   Gusts: NA
Location:  44.15°N, 72.04°W
Report Text: KMPV 282351Z AUTO 00000KT 10SM FEW031 M10/M11 A3014 RMK AO2 SLP230 60000 T11001111 11050 21106 51009 $
Loading
Personal Weather Stations






























Interactive Weather Map New forecast layout! Learn more

10-Day Weather Forecast

Advertisements
Track Severe Weather on mobile